createdAt,value
2023-01-29T00:00:16.332Z,17.88
2023-01-29T00:02:44.787Z,19.95
2023-01-29T00:08:02.025Z,20.50
2023-01-29T00:10:20.921Z,19.38
2023-01-29T00:10:30.326Z,21.70
2023-01-29T00:12:58.484Z,20.63
2023-01-29T00:15:26.718Z,20.73
2023-01-29T00:17:54.903Z,19.15
2023-01-29T00:20:23.059Z,18.58
2023-01-29T00:22:51.236Z,18.88
2023-01-29T00:25:19.337Z,19.27
2023-01-29T00:27:47.518Z,18.25
2023-01-29T00:30:19.551Z,20.58
2023-01-29T00:32:48.243Z,18.52
2023-01-29T00:35:16.462Z,18.33
2023-01-29T00:37:44.633Z,19.58
2023-01-29T00:40:13.378Z,18.88
2023-01-29T00:43:00.187Z,17.27
2023-01-29T00:45:28.368Z,17.85
2023-01-29T00:47:56.589Z,18.00
2023-01-29T00:50:24.796Z,18.05
2023-01-29T00:52:54.747Z,17.58
2023-01-29T00:55:23.292Z,16.85
2023-01-29T00:57:52.366Z,16.58
2023-01-29T01:00:20.881Z,18.45
2023-01-29T01:03:07.906Z,17.38
2023-01-29T01:05:36.990Z,16.73
2023-01-29T01:08:26.100Z,16.60
2023-01-29T01:11:04.646Z,19.05
2023-01-29T01:13:34.357Z,21.52
2023-01-29T01:16:08.930Z,21.85
2023-01-29T01:18:38.099Z,20.60
2023-01-29T01:21:06.560Z,19.50
2023-01-29T01:23:35.554Z,18.85
2023-01-29T01:26:08.214Z,19.58
2023-01-29T01:28:36.538Z,17.98
2023-01-29T01:31:15.628Z,19.50
2023-01-29T01:33:44.695Z,17.70
2023-01-29T01:36:14.051Z,19.42
2023-01-29T01:38:45.301Z,19.05
2023-01-29T01:41:17.122Z,18.17
2023-01-29T01:43:51.404Z,16.88
2023-01-29T01:46:20.355Z,18.40
2023-01-29T01:48:54.675Z,18.48
2023-01-29T01:51:25.083Z,17.48
2023-01-29T01:53:58.040Z,19.00
2023-01-29T01:56:38.562Z,18.65
2023-01-29T01:59:11.128Z,17.90
2023-01-29T02:01:42.905Z,17.02
2023-01-29T02:04:42.809Z,18.88
2023-01-29T02:07:32.554Z,18.50
2023-01-29T02:10:10.344Z,17.90
2023-01-29T02:12:39.460Z,17.90
2023-01-29T02:15:08.358Z,17.45
2023-01-29T02:17:39.691Z,18.65
2023-01-29T02:20:13.051Z,18.92
2023-01-29T02:23:02.622Z,17.25
2023-01-29T02:28:54.633Z,19.10
2023-01-29T02:31:39.539Z,18.25
2023-01-29T02:34:22.396Z,18.27
2023-01-29T02:37:09.684Z,17.50
2023-01-29T02:40:17.012Z,18.98
2023-01-29T02:43:28.879Z,18.13
2023-01-29T02:46:18.818Z,17.30
2023-01-29T02:49:15.233Z,17.77
2023-01-29T02:52:11.446Z,17.67
2023-01-29T02:54:48.909Z,18.73
2023-01-29T02:57:22.159Z,18.27
2023-01-29T03:02:40.447Z,18.73
2023-01-29T03:05:15.371Z,16.58
2023-01-29T03:07:52.062Z,16.92
2023-01-29T03:10:40.686Z,16.75
2023-01-29T03:13:41.380Z,15.95
2023-01-29T03:16:44.944Z,16.17
2023-01-29T03:19:26.083Z,18.27
2023-01-29T03:22:01.244Z,16.60
2023-01-29T03:25:08.024Z,18.13
2023-01-29T03:28:01.749Z,19.08
2023-01-29T03:30:59.748Z,17.60
2023-01-29T03:34:09.033Z,17.92
2023-01-29T03:36:47.241Z,17.75
2023-01-29T03:39:17.585Z,18.45
2023-01-29T03:41:56.643Z,17.13
2023-01-29T03:44:44.114Z,17.27
2023-01-29T03:47:31.258Z,17.80
2023-01-29T03:50:07.284Z,17.92
2023-01-29T03:52:44.758Z,17.30
2023-01-29T03:55:35.445Z,17.30
2023-01-29T03:58:40.071Z,17.25
2023-01-29T04:01:21.806Z,18.50
2023-01-29T04:03:56.179Z,17.42
2023-01-29T04:06:30.110Z,16.95
2023-01-29T04:09:22.294Z,17.88
2023-01-29T04:11:59.888Z,16.52
2023-01-29T04:14:29.036Z,18.10
2023-01-29T04:17:02.069Z,20.10
2023-01-29T04:19:42.548Z,20.23
2023-01-29T04:22:21.951Z,19.70
2023-01-29T04:24:51.240Z,19.73
2023-01-29T04:27:43.244Z,20.05
2023-01-29T04:30:33.605Z,19.42
2023-01-29T04:33:40.536Z,20.27
2023-01-29T04:36:36.382Z,18.33
2023-01-29T04:39:24.801Z,18.45
2023-01-29T04:41:58.251Z,20.30
2023-01-29T04:44:50.615Z,19.10
2023-01-29T04:47:45.229Z,19.17
2023-01-29T04:50:24.276Z,18.50
2023-01-29T04:53:04.670Z,18.65
2023-01-29T04:55:41.987Z,19.60
2023-01-29T04:58:37.895Z,20.17
2023-01-29T05:01:09.196Z,18.58
2023-01-29T05:03:41.110Z,17.90
2023-01-29T05:06:11.848Z,18.70
2023-01-29T05:08:41.181Z,19.17
2023-01-29T05:11:10.120Z,19.80
2023-01-29T05:13:42.123Z,18.92
2023-01-29T05:16:24.019Z,18.65
2023-01-29T05:18:52.517Z,19.65
2023-01-29T05:21:23.135Z,19.20
2023-01-29T05:24:11.479Z,18.27
2023-01-29T05:26:58.926Z,19.02
2023-01-29T05:29:27.281Z,18.92
2023-01-29T05:31:55.480Z,17.65
2023-01-29T05:34:23.948Z,19.15
2023-01-29T05:36:52.245Z,19.27
2023-01-29T05:39:20.487Z,19.02
2023-01-29T05:41:50.030Z,18.27
2023-01-29T05:44:18.174Z,18.88
2023-01-29T05:46:46.421Z,17.27
2023-01-29T05:49:14.610Z,18.08
2023-01-29T05:51:42.859Z,18.25
2023-01-29T05:54:14.233Z,18.80
2023-01-29T05:56:43.626Z,18.85
2023-01-29T05:59:11.940Z,17.95
2023-01-29T06:01:40.255Z,20.20
2023-01-29T06:04:08.656Z,17.25
2023-01-29T06:06:36.895Z,17.20
2023-01-29T06:09:05.282Z,17.70
2023-01-29T06:11:33.446Z,17.38
2023-01-29T06:14:01.766Z,19.73
2023-01-29T06:16:29.986Z,17.52
2023-01-29T06:18:58.212Z,17.02
2023-01-29T06:21:26.431Z,19.23
2023-01-29T06:23:55.127Z,18.23
2023-01-29T06:26:23.414Z,17.08
2023-01-29T06:28:51.862Z,18.30
2023-01-29T06:31:36.830Z,17.48
2023-01-29T06:34:09.738Z,18.63
2023-01-29T06:36:38.001Z,19.67
2023-01-29T06:39:06.132Z,18.25
2023-01-29T06:41:34.631Z,18.05
2023-01-29T06:44:02.928Z,18.58
2023-01-29T06:46:31.270Z,19.55
2023-01-29T06:49:02.726Z,17.67
2023-01-29T06:51:30.937Z,18.85
2023-01-29T06:53:59.260Z,18.33
2023-01-29T06:56:27.489Z,18.52
2023-01-29T06:58:55.753Z,19.38
2023-01-29T07:01:35.610Z,19.58
2023-01-29T07:04:04.712Z,19.50
2023-01-29T07:06:33.511Z,19.52
2023-01-29T07:09:02.080Z,18.08
2023-01-29T07:11:30.571Z,17.42
2023-01-29T07:13:58.855Z,18.33
2023-01-29T07:16:27.213Z,20.15
2023-01-29T07:18:55.663Z,17.80
2023-01-29T07:21:24.574Z,19.20
2023-01-29T07:23:52.943Z,17.85
2023-01-29T07:26:21.266Z,19.05
2023-01-29T07:28:52.597Z,19.25
2023-01-29T07:31:21.898Z,20.73
2023-01-29T07:33:50.538Z,19.08
2023-01-29T07:36:19.011Z,19.75
2023-01-29T07:38:50.833Z,19.95
2023-01-29T07:41:19.046Z,18.98
2023-01-29T07:43:48.755Z,18.63
2023-01-29T07:46:17.009Z,19.65
2023-01-29T07:48:45.297Z,20.45
2023-01-29T07:51:13.498Z,20.90
2023-01-29T07:53:42.022Z,21.13
2023-01-29T07:56:10.192Z,21.67
2023-01-29T07:58:41.199Z,21.25
2023-01-29T08:01:09.470Z,21.02
2023-01-29T08:03:37.822Z,21.27
2023-01-29T08:06:06.210Z,21.52
2023-01-29T08:08:34.563Z,21.73
2023-01-29T08:11:04.474Z,20.30
2023-01-29T08:13:33.564Z,19.92
2023-01-29T08:16:03.247Z,19.58
2023-01-29T08:18:31.723Z,18.35
2023-01-29T08:21:01.585Z,19.40
2023-01-29T08:23:30.062Z,20.25
2023-01-29T08:25:58.294Z,19.55
2023-01-29T08:28:26.640Z,19.38
2023-01-29T08:30:55.188Z,19.00
2023-01-29T08:33:38.003Z,17.58
2023-01-29T08:36:07.775Z,19.70
2023-01-29T08:38:36.964Z,19.45
2023-01-29T08:41:05.472Z,21.17
2023-01-29T08:43:35.383Z,20.85
2023-01-29T08:46:05.627Z,21.55
2023-01-29T08:48:34.031Z,20.95
2023-01-29T08:51:03.091Z,23.38
2023-01-29T08:53:32.400Z,24.17
2023-01-29T08:56:03.884Z,22.77
2023-01-29T08:58:32.192Z,23.42
2023-01-29T09:01:11.265Z,21.83
2023-01-29T09:03:41.224Z,20.15
2023-01-29T09:06:11.503Z,20.40
2023-01-29T09:08:39.906Z,19.80
2023-01-29T09:11:08.187Z,21.85
2023-01-29T09:13:36.385Z,20.15
2023-01-29T09:16:05.305Z,19.65
2023-01-29T09:18:33.556Z,19.20
2023-01-29T09:21:02.718Z,19.17
2023-01-29T09:23:31.404Z,17.73
2023-01-29T09:25:59.809Z,17.45
2023-01-29T09:28:28.381Z,18.13
2023-01-29T09:30:56.709Z,17.05
2023-01-29T09:33:24.928Z,17.42
2023-01-29T09:35:53.220Z,17.92
2023-01-29T09:38:21.379Z,17.92
2023-01-29T09:41:14.203Z,17.20
2023-01-29T09:43:53.174Z,12.90
2023-01-29T09:46:41.421Z,12.07
2023-01-29T09:49:25.872Z,10.35
2023-01-29T09:51:59.340Z,10.45
2023-01-29T09:55:00.187Z,11.27
2023-01-29T09:58:10.026Z,10.80
2023-01-29T10:00:52.889Z,10.93
2023-01-29T10:03:50.772Z,11.13
2023-01-29T10:06:37.549Z,11.23
2023-01-29T10:09:24.171Z,11.23
2023-01-29T10:12:18.699Z,10.52
2023-01-29T10:14:49.756Z,10.38
2023-01-29T10:17:26.760Z,11.05
2023-01-29T10:20:19.489Z,12.02
2023-01-29T10:22:47.611Z,10.60
2023-01-29T10:25:21.012Z,9.55
2023-01-29T10:27:55.268Z,10.68
2023-01-29T10:30:40.490Z,10.13
2023-01-29T10:33:17.088Z,10.13
2023-01-29T10:35:50.149Z,10.23
2023-01-29T10:38:45.500Z,11.40
2023-01-29T10:41:24.878Z,10.27
2023-01-29T10:44:01.991Z,9.82
2023-01-29T10:46:51.761Z,10.55
2023-01-29T10:49:50.056Z,11.90
2023-01-29T10:52:59.513Z,11.73
2023-01-29T10:56:14.092Z,11.00
2023-01-29T10:59:05.474Z,9.20
2023-01-29T11:01:33.859Z,9.35
2023-01-29T11:04:04.390Z,8.45
2023-01-29T11:06:36.998Z,8.02
2023-01-29T11:12:23.718Z,10.07
2023-01-29T11:14:57.807Z,9.70
2023-01-29T11:17:27.393Z,9.73
2023-01-29T11:19:56.311Z,9.38
2023-01-29T11:22:27.824Z,8.48
2023-01-29T11:25:19.403Z,9.55
2023-01-29T11:27:49.525Z,9.00
2023-01-29T11:30:24.411Z,9.55
2023-01-29T11:33:21.827Z,10.82
2023-01-29T11:35:52.618Z,11.50
2023-01-29T11:38:25.098Z,10.05
2023-01-29T11:40:53.979Z,9.63
2023-01-29T11:43:30.008Z,9.95
2023-01-29T11:46:11.615Z,9.32
2023-01-29T11:48:51.551Z,10.10
2023-01-29T11:51:29.298Z,9.63
2023-01-29T11:54:03.929Z,9.82
2023-01-29T11:56:41.557Z,9.90
2023-01-29T11:59:37.782Z,11.15
2023-01-29T12:02:17.475Z,9.82
2023-01-29T12:04:46.844Z,9.05
2023-01-29T12:07:18.012Z,10.18
2023-01-29T12:09:57.995Z,9.68
2023-01-29T12:12:32.125Z,10.45
2023-01-29T12:15:04.184Z,9.13
2023-01-29T12:17:37.672Z,9.82
2023-01-29T12:22:48.225Z,9.50
2023-01-29T12:25:30.584Z,9.35
2023-01-29T12:28:09.538Z,9.18
2023-01-29T12:31:14.765Z,9.32
2023-01-29T12:34:02.006Z,10.68
2023-01-29T12:36:41.604Z,9.50
2023-01-29T12:39:16.596Z,9.18
2023-01-29T12:41:48.831Z,9.60
2023-01-29T12:44:42.456Z,9.88
2023-01-29T12:47:34.492Z,10.45
2023-01-29T12:50:25.148Z,9.70
2023-01-29T12:52:58.554Z,9.13
2023-01-29T12:58:04.689Z,10.20
2023-01-29T13:00:35.990Z,10.02
2023-01-29T13:03:26.141Z,11.93
2023-01-29T13:06:00.048Z,10.75
2023-01-29T13:08:35.929Z,10.20
2023-01-29T13:11:29.299Z,10.13
2023-01-29T13:14:16.733Z,10.60
2023-01-29T13:16:48.534Z,11.38
2023-01-29T13:19:35.108Z,10.60
2023-01-29T13:22:06.857Z,12.15
2023-01-29T13:24:41.199Z,11.35
2023-01-29T13:27:25.630Z,11.43
2023-01-29T13:29:55.663Z,12.98
2023-01-29T13:32:27.982Z,11.55
2023-01-29T13:35:03.294Z,11.88
2023-01-29T13:37:37.620Z,12.07
2023-01-29T13:40:07.378Z,12.90
2023-01-29T13:42:49.693Z,13.80
2023-01-29T13:45:45.541Z,14.07
2023-01-29T13:48:23.899Z,12.63
2023-01-29T13:50:53.218Z,13.65
2023-01-29T13:53:32.258Z,13.23
2023-01-29T13:56:33.400Z,12.93
2023-01-29T13:59:05.404Z,13.98
2023-01-29T14:01:48.704Z,14.05
2023-01-29T14:04:22.651Z,13.18
2023-01-29T14:06:57.116Z,12.02
2023-01-29T14:09:40.302Z,13.35
2023-01-29T14:12:23.468Z,14.93
2023-01-29T14:15:05.178Z,13.23
2023-01-29T14:17:33.598Z,13.00
2023-01-29T14:20:27.702Z,13.40
2023-01-29T14:23:02.079Z,12.30
2023-01-29T14:25:37.632Z,13.80
2023-01-29T14:28:16.408Z,12.52
2023-01-29T14:30:49.187Z,12.15
2023-01-29T14:33:42.541Z,11.93
2023-01-29T14:36:15.749Z,13.02
2023-01-29T14:38:51.922Z,12.15
2023-01-29T14:41:32.473Z,12.07
2023-01-29T14:44:41.199Z,13.05
2023-01-29T14:47:41.670Z,13.40
2023-01-29T14:50:28.759Z,12.60
2023-01-29T14:53:02.373Z,13.30
2023-01-29T14:55:41.987Z,14.27
2023-01-29T14:58:33.509Z,12.90
2023-01-29T15:01:04.530Z,12.60
2023-01-29T15:03:48.618Z,13.15
2023-01-29T15:06:23.821Z,12.15
2023-01-29T15:09:02.422Z,13.23
2023-01-29T15:11:58.288Z,13.95
2023-01-29T15:14:38.159Z,14.00
2023-01-29T15:17:26.635Z,13.23
2023-01-29T15:19:56.758Z,14.00
2023-01-29T15:22:30.354Z,13.05
2023-01-29T15:25:20.474Z,12.40
2023-01-29T15:27:49.508Z,13.98
2023-01-29T15:30:26.304Z,13.13
2023-01-29T15:32:54.745Z,14.68
2023-01-29T15:35:48.392Z,14.27
2023-01-29T15:38:20.700Z,15.15
2023-01-29T15:41:17.477Z,14.75
2023-01-29T15:43:48.725Z,15.48
2023-01-29T15:46:26.019Z,14.10
2023-01-29T15:48:57.169Z,15.10
2023-01-29T15:51:27.508Z,15.13
2023-01-29T15:53:58.302Z,16.00
2023-01-29T15:56:37.023Z,15.68
2023-01-29T15:59:09.739Z,15.80
2023-01-29T16:01:38.206Z,15.05
2023-01-29T16:04:11.407Z,16.27
2023-01-29T16:06:42.303Z,17.52
2023-01-29T16:09:19.615Z,17.33
2023-01-29T16:11:49.063Z,19.48
2023-01-29T16:14:22.349Z,19.15
2023-01-29T16:19:29.486Z,19.77
2023-01-29T16:22:02.346Z,17.00
2023-01-29T16:24:32.604Z,18.13
2023-01-29T16:27:13.824Z,19.38
2023-01-29T16:29:42.181Z,18.63
2023-01-29T16:32:13.784Z,18.80
2023-01-29T16:34:45.504Z,19.33
2023-01-29T16:37:29.921Z,20.17
2023-01-29T16:39:58.542Z,20.77
2023-01-29T16:42:31.303Z,19.60
2023-01-29T16:45:05.379Z,19.73
2023-01-29T16:47:36.940Z,21.50
2023-01-29T16:50:17.308Z,22.77
2023-01-29T16:53:23.384Z,22.55
2023-01-29T16:55:53.343Z,22.27
2023-01-29T16:58:26.961Z,24.02
2023-01-29T17:01:10.412Z,23.92
2023-01-29T17:06:13.811Z,22.55
2023-01-29T17:08:43.990Z,22.58
2023-01-29T17:11:24.666Z,23.75
2023-01-29T17:13:57.139Z,21.65
2023-01-29T17:16:34.072Z,22.45
2023-01-29T17:19:11.355Z,24.60
2023-01-29T17:21:39.608Z,23.65
2023-01-29T17:24:09.135Z,25.15
2023-01-29T17:26:37.711Z,22.85
2023-01-29T17:29:08.283Z,22.75
2023-01-29T17:31:36.583Z,22.13
2023-01-29T17:34:14.754Z,22.63
2023-01-29T17:36:44.139Z,23.20
2023-01-29T17:39:21.219Z,23.13
2023-01-29T17:41:52.261Z,22.77
2023-01-29T17:44:21.206Z,22.63
2023-01-29T17:46:49.811Z,24.45
2023-01-29T17:49:30.180Z,22.60
2023-01-29T17:51:58.877Z,23.42
2023-01-29T17:54:27.677Z,24.17
2023-01-29T17:56:56.466Z,24.67
2023-01-29T17:59:28.847Z,25.50
2023-01-29T18:01:57.147Z,25.50
2023-01-29T18:04:26.271Z,24.95
2023-01-29T18:06:56.303Z,24.73
2023-01-29T18:09:27.974Z,26.17
2023-01-29T18:11:56.143Z,24.58
2023-01-29T18:14:24.333Z,24.98
2023-01-29T18:16:53.323Z,24.77
2023-01-29T18:19:27.644Z,24.25
2023-01-29T18:21:55.989Z,24.65
2023-01-29T18:24:26.556Z,25.02
2023-01-29T18:26:54.873Z,25.98
2023-01-29T18:29:23.106Z,24.58
2023-01-29T18:31:51.309Z,25.77
2023-01-29T18:34:19.637Z,27.73
2023-01-29T18:36:47.931Z,25.30
2023-01-29T18:39:16.529Z,27.38
2023-01-29T18:41:44.712Z,27.50
2023-01-29T18:44:13.072Z,26.20
2023-01-29T18:46:41.492Z,27.23
2023-01-29T18:49:10.784Z,28.30
2023-01-29T18:51:39.004Z,26.90
2023-01-29T18:54:07.291Z,26.23
2023-01-29T18:56:35.518Z,27.48
2023-01-29T18:59:05.658Z,28.75
2023-01-29T19:01:34.939Z,27.13
2023-01-29T19:04:06.132Z,27.00
2023-01-29T19:06:36.140Z,28.52
2023-01-29T19:09:05.677Z,27.50
2023-01-29T19:11:33.955Z,27.02
2023-01-29T19:14:02.260Z,28.85
2023-01-29T19:16:30.598Z,27.63
2023-01-29T19:18:59.217Z,30.50
2023-01-29T19:21:28.472Z,28.42
2023-01-29T19:23:56.827Z,29.90
2023-01-29T19:26:25.108Z,28.70
2023-01-29T19:28:53.378Z,28.95
2023-01-29T19:31:21.588Z,29.15
2023-01-29T19:33:49.799Z,31.52
2023-01-29T19:36:18.027Z,33.10
2023-01-29T19:38:46.211Z,32.47
2023-01-29T19:41:14.597Z,33.83
2023-01-29T19:43:43.177Z,32.15
2023-01-29T19:46:11.571Z,32.63
2023-01-29T19:48:40.156Z,32.90
2023-01-29T19:51:10.764Z,33.55
2023-01-29T19:53:43.845Z,32.53
2023-01-29T19:56:17.427Z,30.73
2023-01-29T19:58:45.928Z,33.83
2023-01-29T20:01:17.168Z,32.13
2023-01-29T20:03:49.589Z,30.08
2023-01-29T20:06:22.121Z,29.95
2023-01-29T20:08:50.885Z,29.33
2023-01-29T20:11:22.423Z,28.40
2023-01-29T20:13:52.418Z,28.90
2023-01-29T20:16:21.486Z,30.75
2023-01-29T20:18:49.787Z,30.35
2023-01-29T20:21:21.939Z,36.05
2023-01-29T20:23:51.780Z,31.10
2023-01-29T20:26:21.447Z,32.72
2023-01-29T20:28:49.992Z,27.77
2023-01-29T20:31:18.419Z,30.33
2023-01-29T20:33:46.858Z,28.80
2023-01-29T20:36:15.237Z,28.15
2023-01-29T20:38:43.540Z,30.00
2023-01-29T20:41:16.912Z,30.02
2023-01-29T20:43:47.108Z,31.42
2023-01-29T20:46:15.746Z,31.30
2023-01-29T20:48:43.982Z,31.33
2023-01-29T20:51:15.682Z,31.42
2023-01-29T20:53:48.663Z,33.22
2023-01-29T20:56:18.345Z,31.63
2023-01-29T20:59:01.838Z,32.40
2023-01-29T21:01:30.085Z,31.80
2023-01-29T21:03:58.782Z,32.72
2023-01-29T21:06:30.021Z,31.55
2023-01-29T21:08:58.351Z,32.53
2023-01-29T21:11:27.071Z,32.70
2023-01-29T21:13:57.875Z,33.88
2023-01-29T21:16:26.945Z,34.15
2023-01-29T21:18:59.070Z,33.58
2023-01-29T21:21:27.637Z,32.92
2023-01-29T21:23:56.043Z,32.90
2023-01-29T21:26:24.448Z,32.80
2023-01-29T21:28:52.805Z,33.42
2023-01-29T21:31:21.824Z,33.13
2023-01-29T21:33:50.333Z,34.55
2023-01-29T21:36:18.644Z,31.73
2023-01-29T21:38:46.946Z,32.58
2023-01-29T21:41:15.192Z,32.60
2023-01-29T21:43:44.568Z,33.50
2023-01-29T21:46:12.852Z,32.45
2023-01-29T21:48:41.112Z,31.98
2023-01-29T21:51:09.725Z,32.92
2023-01-29T21:53:38.077Z,33.90
2023-01-29T21:56:06.978Z,33.95
2023-01-29T21:58:37.069Z,31.88
2023-01-29T22:01:36.342Z,33.65
2023-01-29T22:03:55.635Z,32.92
2023-01-29T22:06:24.059Z,32.38
2023-01-29T22:08:52.614Z,34.15
2023-01-29T22:11:20.994Z,32.10
2023-01-29T22:13:49.157Z,31.42
2023-01-29T22:16:17.342Z,31.52
2023-01-29T22:18:45.960Z,33.28
2023-01-29T22:21:14.125Z,29.90
2023-01-29T22:23:42.267Z,30.67
2023-01-29T22:26:11.014Z,31.20
2023-01-29T22:28:39.211Z,31.15
2023-01-29T22:31:07.459Z,31.88
2023-01-29T22:33:36.602Z,31.27
2023-01-29T22:36:05.376Z,31.17
2023-01-29T22:38:33.607Z,31.05
2023-01-29T22:41:01.951Z,31.90
2023-01-29T22:43:30.294Z,32.40
2023-01-29T22:46:01.590Z,32.75
2023-01-29T22:48:30.688Z,32.13
2023-01-29T22:51:12.031Z,32.72
2023-01-29T22:53:44.120Z,33.10
2023-01-29T22:56:12.670Z,32.65
2023-01-29T22:58:44.156Z,32.78
2023-01-29T23:01:12.466Z,32.70
2023-01-29T23:03:40.607Z,31.65
2023-01-29T23:06:08.893Z,33.35
2023-01-29T23:08:37.090Z,31.98
2023-01-29T23:11:17.753Z,33.50
2023-01-29T23:13:49.124Z,32.55
2023-01-29T23:16:18.681Z,32.15
2023-01-29T23:18:51.424Z,30.48
2023-01-29T23:21:22.853Z,31.52
2023-01-29T23:23:57.020Z,32.90
2023-01-29T23:26:43.779Z,31.42
2023-01-29T23:29:12.173Z,32.28
2023-01-29T23:31:40.513Z,31.50
2023-01-29T23:34:08.997Z,31.63
2023-01-29T23:36:37.294Z,32.03
2023-01-29T23:39:06.249Z,30.50
2023-01-29T23:41:34.649Z,32.42
2023-01-29T23:44:03.108Z,32.53
2023-01-29T23:46:31.971Z,34.00
2023-01-29T23:49:01.634Z,29.55
2023-01-29T23:51:29.972Z,31.02
2023-01-29T23:53:58.472Z,33.05
2023-01-29T23:56:26.747Z,31.40
2023-01-29T23:58:56.254Z,32.40
